Prompton, Pennsylvania
Current Conditions -  °F | °C
As of 10:54 AM on Tuesday 27 Jan 2015 (Local Time) from KAVP Reporting Station
Overcast Overcast  
Wind Chill:   Ceiling: 8500
Heat Index: 21°   Visibility: 10mi
Dew Point:   Wind: 13mph
Humidity: 57%   Direction: 330°NNW
Pressure: 29.79"   Gusts: NA
Location:  41.58°N, 75.33°W
Report Text: KAVP 271554Z AUTO 33011KT 10SM OVC085 M06/M13 A2979 RMK AO2 SLP098 T10611133
Loading
Personal Weather Stations






























Interactive Weather Map New forecast layout! Learn more

10-Day Weather Forecast

Advertisements
Track Severe Weather on mobile